Time;durP1;ratioP1;P1;durP2;ratioP2;P2;SDS_P1;SDS_P2;PMS_P1;PMS_P2;Temp;Humidity;BMP_temperature;BMP_pressure;BME280_temperature;BME280_humidity;BME280_pressure;Samples;Min_cycle;Max_cycle;Signal;HPM_P1;HPM_P2
2023/11/08 00:00:27;;;;;;;;;;;7.80;99.90;;;;;;5052841;28;19964;-80
2023/11/08 00:02:52;;;;;;;;;;;7.90;99.90;;;;;;5036049;28;19910;-80
2023/11/08 00:05:18;;;;;;;;;;;7.90;99.90;;;;;;5035967;28;19954;-71
2023/11/08 00:07:43;;;;;;;;;;;7.80;99.90;;;;;;5035434;28;19929;-71
2023/11/08 00:10:11;;;;;;;;;;;7.80;99.90;;;;;;5035330;28;19913;-80
2023/11/08 00:12:36;;;;;;;;;;;7.80;99.90;;;;;;5035326;28;19909;-71
2023/11/08 00:15:03;;;;;;;;;;;7.90;99.90;;;;;;5035287;28;19967;-71
2023/11/08 00:17:29;;;;;;;;;;;8.00;99.90;;;;;;5035764;28;20004;-71
2023/11/08 00:19:55;;;;;;;;;;;8.00;99.90;;;;;;5035315;28;19951;-71
2023/11/08 00:22:21;;;;;;;;;;;8.10;99.90;;;;;;5035365;28;20284;-71
2023/11/08 00:24:47;;;;;;;;;;;8.10;99.90;;;;;;5035522;28;19910;-81
2023/11/08 00:27:12;;;;;;;;;;;8.10;99.90;;;;;;5034904;28;19913;-81
2023/11/08 00:29:39;;;;;;;;;;;8.10;99.90;;;;;;5175004;22;19923;-71
2023/11/08 00:32:06;;;;;;;;;;;8.10;99.90;;;;;;5026590;28;20402;-70
2023/11/08 00:34:31;;;;;;;;;;;8.20;99.90;;;;;;5017390;28;19913;-81
2023/11/08 00:36:57;;;;;;;;;;;8.20;99.90;;;;;;5015538;28;19910;-80
2023/11/08 00:39:22;;;;;;;;;;;8.20;99.90;;;;;;5015211;28;19945;-81
2023/11/08 00:41:48;;;;;;;;;;;8.20;99.90;;;;;;5015232;28;20268;-81
2023/11/08 00:44:14;;;;;;;;;;;8.20;99.90;;;;;;5015150;28;19975;-70
2023/11/08 00:46:40;;;;;;;;;;;8.20;99.90;;;;;;5015013;28;20392;-71
2023/11/08 00:49:05;;;;;;;;;;;8.30;99.90;;;;;;5015211;28;20392;-72
2023/11/08 00:51:32;;;;;;;;;;;8.30;99.90;;;;;;5014804;28;19963;-71
2023/11/08 00:54:00;;;;;;;;;;;8.30;99.90;;;;;;5014881;28;19910;-80
2023/11/08 00:56:26;;;;;;;;;;;8.30;99.90;;;;;;5029268;28;20056;-71
2023/11/08 00:58:51;;;;;;;;;;;8.30;99.90;;;;;;5014884;28;19913;-71
2023/11/08 01:01:17;;;;;;;;;;;8.30;99.90;;;;;;5024409;28;19916;-71
2023/11/08 01:03:42;;;;;;;;;;;8.30;99.90;;;;;;5034766;28;19913;-80
2023/11/08 01:06:08;;;;;;;;;;;8.30;99.90;;;;;;5034546;28;20303;-80
2023/11/08 01:08:34;;;;;;;;;;;8.30;99.90;;;;;;5034294;28;19931;-71
2023/11/08 01:10:59;;;;;;;;;;;8.30;99.90;;;;;;5033192;28;19972;-71
2023/11/08 01:13:24;;;;;;;;;;;8.20;99.90;;;;;;5014314;28;19980;-71
2023/11/08 01:15:50;;;;;;;;;;;8.20;99.90;;;;;;5014801;28;19964;-80
2023/11/08 01:18:16;;;;;;;;;;;8.20;99.90;;;;;;5015070;28;19925;-80
2023/11/08 01:20:42;;;;;;;;;;;8.20;99.90;;;;;;5014369;28;20415;-71
2023/11/08 01:23:08;;;;;;;;;;;8.20;99.90;;;;;;5014402;28;19964;-71
2023/11/08 01:25:33;;;;;;;;;;;8.30;99.90;;;;;;5014380;28;19909;-71
2023/11/08 01:27:59;;;;;;;;;;;8.40;99.90;;;;;;5040852;28;19913;-72
2023/11/08 01:30:24;;;;;;;;;;;8.40;99.90;;;;;;5045871;28;19968;-79
2023/11/08 01:32:50;;;;;;;;;;;8.40;99.90;;;;;;5025001;28;19910;-79
2023/11/08 01:35:18;;;;;;;;;;;8.40;99.90;;;;;;5014286;28;19909;-71
2023/11/08 01:37:44;;;;;;;;;;;8.40;99.90;;;;;;5013995;28;19917;-71
2023/11/08 01:40:10;;;;;;;;;;;8.40;99.90;;;;;;5014381;28;19937;-80
2023/11/08 01:42:36;;;;;;;;;;;8.40;99.90;;;;;;5029160;28;20404;-80
2023/11/08 01:45:02;;;;;;;;;;;8.40;99.90;;;;;;5014092;28;20012;-80
2023/11/08 01:47:28;;;;;;;;;;;8.40;99.90;;;;;;5013866;28;19910;-71
2023/11/08 01:49:54;;;;;;;;;;;8.50;99.90;;;;;;5013608;28;19921;-71
2023/11/08 01:52:20;;;;;;;;;;;8.40;99.90;;;;;;5013816;28;20000;-72
2023/11/08 01:54:49;;;;;;;;;;;8.50;99.90;;;;;;5014299;28;19909;-80
2023/11/08 01:57:14;;;;;;;;;;;8.50;99.90;;;;;;5013688;28;20299;-80
2023/11/08 01:59:40;;;;;;;;;;;8.50;99.90;;;;;;5013828;28;19914;-72
2023/11/08 02:02:05;;;;;;;;;;;8.50;99.90;;;;;;5029863;28;19909;-72
2023/11/08 02:04:31;;;;;;;;;;;8.50;99.90;;;;;;5033452;28;19910;-72
2023/11/08 02:06:57;;;;;;;;;;;8.50;99.90;;;;;;5033619;28;19913;-79
2023/11/08 02:09:23;;;;;;;;;;;8.60;99.90;;;;;;5031846;28;19917;-71
2023/11/08 02:11:48;;;;;;;;;;;8.60;99.90;;;;;;5041915;28;20424;-79
2023/11/08 02:14:14;;;;;;;;;;;8.60;99.90;;;;;;5013665;28;19909;-71
2023/11/08 02:16:40;;;;;;;;;;;8.60;99.90;;;;;;5013129;28;20392;-71
2023/11/08 02:19:06;;;;;;;;;;;8.60;99.90;;;;;;5013879;28;20288;-71
2023/11/08 02:21:32;;;;;;;;;;;8.60;99.90;;;;;;5013199;28;19909;-80
2023/11/08 02:23:58;;;;;;;;;;;8.70;99.90;;;;;;5012780;28;19968;-80
2023/11/08 02:26:24;;;;;;;;;;;8.70;99.90;;;;;;5013270;28;19913;-71
2023/11/08 02:28:49;;;;;;;;;;;8.80;99.90;;;;;;5031518;28;19932;-71
2023/11/08 02:31:17;;;;;;;;;;;8.90;99.90;;;;;;5025826;28;19976;-71
2023/11/08 02:33:42;;;;;;;;;;;8.90;99.90;;;;;;5022045;28;19917;-80
2023/11/08 02:36:08;;;;;;;;;;;8.90;99.90;;;;;;5013427;28;19910;-80
2023/11/08 02:38:33;;;;;;;;;;;8.90;99.90;;;;;;5013244;28;19914;-71
2023/11/08 02:40:59;;;;;;;;;;;9.00;99.90;;;;;;5013720;28;19976;-71
2023/11/08 02:43:25;;;;;;;;;;;8.90;99.90;;;;;;5013215;28;19909;-71
2023/11/08 02:45:53;;;;;;;;;;;9.00;99.90;;;;;;5013230;28;20272;-71
2023/11/08 02:48:18;;;;;;;;;;;9.00;99.90;;;;;;5013434;28;20296;-80
2023/11/08 02:50:44;;;;;;;;;;;9.00;99.90;;;;;;5013174;28;19914;-80
2023/11/08 02:53:10;;;;;;;;;;;9.00;99.90;;;;;;5028418;28;19920;-71
2023/11/08 02:55:36;;;;;;;;;;;9.00;99.90;;;;;;5012984;28;19910;-71
2023/11/08 02:58:02;;;;;;;;;;;9.00;99.90;;;;;;5013240;28;19914;-71
2023/11/08 03:00:27;;;;;;;;;;;9.00;99.90;;;;;;5016039;28;20051;-80
2023/11/08 03:02:54;;;;;;;;;;;9.10;99.90;;;;;;5032932;28;19945;-80
2023/11/08 03:05:21;;;;;;;;;;;9.10;99.90;;;;;;5033265;28;19967;-72
2023/11/08 03:07:50;;;;;;;;;;;9.10;99.90;;;;;;5032700;28;19916;-71
2023/11/08 03:10:17;;;;;;;;;;;9.10;99.90;;;;;;5032280;28;20369;-80
2023/11/08 03:12:47;;;;;;;;;;;9.10;99.90;;;;;;5018429;28;19909;-71
2023/11/08 03:15:13;;;;;;;;;;;9.10;99.90;;;;;;5013165;28;20364;-80
2023/11/08 03:17:42;;;;;;;;;;;9.10;99.90;;;;;;5013351;28;19914;-72
2023/11/08 03:20:08;;;;;;;;;;;9.10;99.90;;;;;;5013071;28;19996;-71
2023/11/08 03:22:35;;;;;;;;;;;9.10;99.90;;;;;;5013151;28;20419;-71
2023/11/08 03:25:01;;;;;;;;;;;9.10;99.90;;;;;;5013340;28;20383;-71
2023/11/08 03:27:27;;;;;;;;;;;9.10;99.90;;;;;;5019810;28;19909;-80
2023/11/08 03:29:53;;;;;;;;;;;9.10;99.90;;;;;;5034602;28;19983;-80
2023/11/08 03:32:18;;;;;;;;;;;9.10;99.90;;;;;;5027097;28;19913;-72
2023/11/08 03:34:45;;;;;;;;;;;9.10;99.90;;;;;;5016673;28;20368;-80
2023/11/08 03:37:11;;;;;;;;;;;9.10;99.90;;;;;;5016615;28;19917;-71
2023/11/08 03:39:36;;;;;;;;;;;9.10;99.90;;;;;;5016313;28;19909;-80
2023/11/08 03:42:02;;;;;;;;;;;9.10;99.90;;;;;;5016200;28;19916;-71
2023/11/08 03:44:27;;;;;;;;;;;9.10;99.90;;;;;;5016291;28;20032;-71
2023/11/08 03:46:53;;;;;;;;;;;9.10;99.90;;;;;;5016435;28;20261;-80
2023/11/08 03:49:18;;;;;;;;;;;9.10;99.90;;;;;;5016045;28;19969;-71
2023/11/08 03:51:44;;;;;;;;;;;9.10;99.90;;;;;;5015984;28;19917;-80
2023/11/08 03:54:10;;;;;;;;;;;9.10;99.90;;;;;;5016064;28;19913;-71
2023/11/08 03:56:35;;;;;;;;;;;9.10;99.90;;;;;;5015603;28;19917;-71
2023/11/08 03:59:01;;;;;;;;;;;9.10;99.90;;;;;;5016085;28;19960;-71
2023/11/08 04:01:28;;;;;;;;;;;9.20;99.90;;;;;;5026649;28;19955;-80
2023/11/08 04:03:54;;;;;;;;;;;9.20;99.90;;;;;;5035592;28;19936;-71
2023/11/08 04:06:20;;;;;;;;;;;9.20;99.90;;;;;;5035627;28;20379;-79
2023/11/08 04:08:45;;;;;;;;;;;9.20;99.90;;;;;;5034172;28;19909;-80
2023/11/08 04:11:11;;;;;;;;;;;9.30;99.90;;;;;;5033913;28;19959;-71
2023/11/08 04:13:36;;;;;;;;;;;9.30;99.90;;;;;;5015641;28;19960;-80
2023/11/08 04:16:02;;;;;;;;;;;9.30;99.90;;;;;;5015833;28;19910;-70
2023/11/08 04:18:27;;;;;;;;;;;9.30;99.90;;;;;;5015947;28;20000;-79
2023/11/08 04:20:53;;;;;;;;;;;9.30;99.90;;;;;;5020644;28;19920;-70
2023/11/08 04:23:18;;;;;;;;;;;9.30;99.90;;;;;;5024190;28;19960;-70
2023/11/08 04:25:44;;;;;;;;;;;9.20;99.90;;;;;;5015630;28;19909;-71
2023/11/08 04:28:10;;;;;;;;;;;9.30;99.90;;;;;;5043355;28;20272;-71
2023/11/08 04:30:35;;;;;;;;;;;9.20;99.90;;;;;;5031633;28;19932;-70
2023/11/08 04:33:01;;;;;;;;;;;9.20;99.90;;;;;;5026258;28;20344;-79
2023/11/08 04:35:26;;;;;;;;;;;9.20;99.90;;;;;;5034858;28;19959;-79
2023/11/08 04:37:52;;;;;;;;;;;9.10;99.90;;;;;;5034858;28;19913;-70
2023/11/08 04:40:18;;;;;;;;;;;9.10;99.90;;;;;;5033155;28;19909;-71
2023/11/08 04:42:43;;;;;;;;;;;9.10;99.90;;;;;;5034855;28;19910;-70
2023/11/08 04:45:09;;;;;;;;;;;9.10;99.90;;;;;;5034842;28;20287;-79
2023/11/08 04:47:37;;;;;;;;;;;9.10;99.90;;;;;;5034863;28;20000;-78
2023/11/08 04:50:03;;;;;;;;;;;9.10;99.90;;;;;;5034756;28;19920;-71
2023/11/08 04:52:29;;;;;;;;;;;9.10;99.90;;;;;;5034697;28;19909;-79
2023/11/08 04:54:55;;;;;;;;;;;9.20;99.90;;;;;;5034711;28;20000;-71
2023/11/08 04:57:20;;;;;;;;;;;9.10;99.90;;;;;;5024306;28;19917;-79
2023/11/08 04:59:46;;;;;;;;;;;9.10;99.90;;;;;;5014790;28;19917;-79
2023/11/08 05:02:12;;;;;;;;;;;9.20;99.90;;;;;;5031722;28;19909;-71
2023/11/08 05:04:40;;;;;;;;;;;9.20;99.90;;;;;;5034552;28;19915;-70
2023/11/08 05:07:06;;;;;;;;;;;9.30;99.90;;;;;;5034587;28;19932;-78
2023/11/08 05:09:32;;;;;;;;;;;9.30;99.90;;;;;;5034207;28;20363;-78
2023/11/08 05:11:58;;;;;;;;;;;9.30;99.90;;;;;;5026344;28;19910;-78
2023/11/08 05:14:24;;;;;;;;;;;9.40;99.90;;;;;;5014504;28;19916;-71
2023/11/08 05:16:50;;;;;;;;;;;9.40;99.90;;;;;;5014702;28;19965;-72
2023/11/08 05:19:16;;;;;;;;;;;9.50;99.90;;;;;;5014507;28;19953;-71
2023/11/08 05:21:47;;;;;;;;;;;9.50;99.90;;;;;;5026925;28;19963;-70
2023/11/08 05:24:13;;;;;;;;;;;9.60;99.90;;;;;;5014549;28;19910;-79
2023/11/08 05:26:39;;;;;;;;;;;9.50;99.90;;;;;;5015035;28;19953;-79
2023/11/08 05:29:04;;;;;;;;;;;9.60;99.90;;;;;;5034341;28;20340;-70
2023/11/08 05:31:33;;;;;;;;;;;9.60;99.90;;;;;;5025625;28;20000;-70
2023/11/08 05:34:02;;;;;;;;;;;9.50;99.90;;;;;;5021569;28;19967;-70
2023/11/08 05:36:28;;;;;;;;;;;9.60;99.90;;;;;;5014134;28;20432;-78
2023/11/08 05:38:55;;;;;;;;;;;9.60;99.90;;;;;;5014406;28;19909;-78
2023/11/08 05:41:21;;;;;;;;;;;9.60;99.90;;;;;;5014402;28;19957;-70
2023/11/08 05:43:46;;;;;;;;;;;9.60;99.90;;;;;;5029132;28;19999;-70
2023/11/08 05:46:12;;;;;;;;;;;9.60;99.90;;;;;;5013905;28;19917;-70
2023/11/08 05:48:37;;;;;;;;;;;9.60;99.90;;;;;;5014339;28;20000;-71
2023/11/08 05:51:03;;;;;;;;;;;9.70;99.90;;;;;;5028533;28;19920;-71
2023/11/08 05:53:29;;;;;;;;;;;9.70;99.90;;;;;;5013651;28;19952;-78
2023/11/08 05:55:55;;;;;;;;;;;9.70;99.90;;;;;;5013867;28;19976;-79
2023/11/08 05:58:21;;;;;;;;;;;9.70;99.90;;;;;;5011940;28;19913;-70
2023/11/08 06:00:46;;;;;;;;;;;9.70;99.90;;;;;;5018144;28;19914;-71
2023/11/08 06:03:12;;;;;;;;;;;9.70;99.90;;;;;;5013744;28;19916;-78
2023/11/08 06:05:37;;;;;;;;;;;9.70;99.90;;;;;;5014274;28;20376;-78
2023/11/08 06:08:03;;;;;;;;;;;9.80;99.90;;;;;;5033373;28;19909;-78
2023/11/08 06:10:29;;;;;;;;;;;9.80;99.90;;;;;;5032847;28;20532;-70
2023/11/08 06:12:56;;;;;;;;;;;9.80;99.90;;;;;;5016453;28;20452;-71
2023/11/08 06:15:23;;;;;;;;;;;9.80;99.90;;;;;;5013545;28;19909;-79
2023/11/08 06:17:52;;;;;;;;;;;9.90;99.90;;;;;;5013918;28;20370;-79
2023/11/08 06:20:18;;;;;;;;;;;9.90;99.90;;;;;;5013552;28;20294;-70
2023/11/08 06:22:44;;;;;;;;;;;9.90;99.90;;;;;;5018598;28;19985;-70
2023/11/08 06:25:09;;;;;;;;;;;9.90;99.90;;;;;;5019877;28;19917;-70
2023/11/08 06:27:35;;;;;;;;;;;10.00;99.90;;;;;;5021160;28;20364;-70
2023/11/08 06:30:00;;;;;;;;;;;10.00;99.90;;;;;;5033108;28;20295;-78
2023/11/08 06:32:26;;;;;;;;;;;10.00;99.90;;;;;;5018553;28;19913;-78
2023/11/08 06:34:51;;;;;;;;;;;10.00;99.90;;;;;;5031705;28;20014;-70
2023/11/08 06:37:17;;;;;;;;;;;10.10;99.90;;;;;;5025533;28;20019;-78
2023/11/08 06:39:43;;;;;;;;;;;10.10;99.90;;;;;;5021561;28;19960;-70
2023/11/08 06:42:08;;;;;;;;;;;10.20;99.90;;;;;;5028016;28;19957;-71
2023/11/08 06:44:34;;;;;;;;;;;10.20;99.90;;;;;;5017866;28;20378;-78
2023/11/08 06:46:59;;;;;;;;;;;10.30;99.90;;;;;;5020126;28;19913;-78
2023/11/08 06:49:25;;;;;;;;;;;10.30;99.90;;;;;;5031574;28;19936;-71
2023/11/08 06:51:51;;;;;;;;;;;10.30;99.90;;;;;;5030878;28;20052;-72
2023/11/08 06:54:16;;;;;;;;;;;10.30;99.90;;;;;;5013150;28;19968;-78
2023/11/08 06:56:42;;;;;;;;;;;10.30;99.90;;;;;;5016261;28;19917;-79
2023/11/08 06:59:07;;;;;;;;;;;10.30;99.90;;;;;;5030459;28;19917;-79
2023/11/08 07:01:35;;;;;;;;;;;10.30;99.90;;;;;;5020300;28;20269;-78
2023/11/08 07:04:00;;;;;;;;;;;10.30;99.90;;;;;;5030277;28;20003;-71
2023/11/08 07:06:26;;;;;;;;;;;10.30;99.90;;;;;;5029853;28;20011;-71
2023/11/08 07:08:52;;;;;;;;;;;10.30;99.90;;;;;;5019056;28;20376;-79
2023/11/08 07:11:17;;;;;;;;;;;10.40;99.90;;;;;;5033235;28;19924;-79
2023/11/08 07:13:44;;;;;;;;;;;10.50;99.90;;;;;;5022992;28;19972;-71
2023/11/08 07:16:09;;;;;;;;;;;10.50;99.90;;;;;;5025374;28;19920;-71
2023/11/08 07:18:35;;;;;;;;;;;10.60;99.90;;;;;;5034265;28;20350;-70
2023/11/08 07:21:00;;;;;;;;;;;10.70;99.90;;;;;;5035110;28;19976;-76
2023/11/08 07:23:26;;;;;;;;;;;10.70;99.90;;;;;;5026438;28;19957;-80
2023/11/08 07:25:51;;;;;;;;;;;10.80;99.90;;;;;;5033951;28;20338;-79
2023/11/08 07:28:18;;;;;;;;;;;10.90;99.90;;;;;;5030414;28;19967;-71
2023/11/08 07:30:43;;;;;;;;;;;11.00;99.90;;;;;;5027960;28;19933;-80
2023/11/08 07:33:09;;;;;;;;;;;11.00;99.90;;;;;;5027664;28;20455;-80
2023/11/08 07:35:34;;;;;;;;;;;11.00;99.90;;;;;;5030520;28;19917;-79
2023/11/08 07:38:00;;;;;;;;;;;11.00;99.90;;;;;;5034354;28;20388;-71
2023/11/08 07:40:27;;;;;;;;;;;11.10;99.90;;;;;;5034020;28;19919;-71
2023/11/08 07:42:52;;;;;;;;;;;11.10;99.90;;;;;;5031442;28;19913;-71
2023/11/08 07:45:18;;;;;;;;;;;11.10;99.90;;;;;;5027426;28;19913;-72
2023/11/08 07:47:45;;;;;;;;;;;11.10;99.90;;;;;;5030419;28;20288;-79
2023/11/08 07:50:11;;;;;;;;;;;11.10;99.90;;;;;;5027217;28;19960;-73
2023/11/08 07:52:37;;;;;;;;;;;11.10;99.90;;;;;;5028674;28;19913;-77
2023/11/08 07:55:05;;;;;;;;;;;11.10;99.90;;;;;;5018105;28;19935;-76
2023/11/08 07:57:30;;;;;;;;;;;11.10;99.90;;;;;;5030747;28;20310;-71
2023/11/08 07:59:56;;;;;;;;;;;11.10;99.90;;;;;;5025978;28;19920;-79
2023/11/08 08:02:21;;;;;;;;;;;11.10;99.90;;;;;;5016987;28;19963;-79
2023/11/08 08:04:47;;;;;;;;;;;11.10;99.90;;;;;;5015366;28;20055;-71
2023/11/08 08:07:12;;;;;;;;;;;11.10;99.90;;;;;;5033534;28;19913;-72
2023/11/08 08:09:38;;;;;;;;;;;11.20;99.90;;;;;;5032143;28;19917;-79
2023/11/08 08:12:05;;;;;;;;;;;11.20;99.90;;;;;;5031260;28;19920;-79
2023/11/08 08:14:31;;;;;;;;;;;11.20;99.90;;;;;;5024109;28;19956;-77
2023/11/08 08:16:58;;;;;;;;;;;11.30;99.90;;;;;;5024365;28;19984;-78
2023/11/08 08:19:24;;;;;;;;;;;11.30;99.90;;;;;;5037710;28;20412;-72
2023/11/08 08:21:51;;;;;;;;;;;11.30;99.90;;;;;;5022859;28;20319;-73
2023/11/08 08:24:19;;;;;;;;;;;11.40;99.90;;;;;;5021563;28;19913;-78
2023/11/08 08:26:46;;;;;;;;;;;11.40;99.90;;;;;;5017100;28;20403;-78
2023/11/08 08:29:13;;;;;;;;;;;11.40;99.90;;;;;;5020683;28;19913;-71
2023/11/08 08:31:38;;;;;;;;;;;11.40;99.90;;;;;;5023755;28;19925;-72
2023/11/08 08:34:04;;;;;;;;;;;11.40;99.90;;;;;;5026303;28;19967;-72
2023/11/08 08:36:31;;;;;;;;;;;11.40;99.90;;;;;;5025986;28;20442;-72
2023/11/08 08:38:57;;;;;;;;;;;11.50;99.90;;;;;;5024924;28;19988;-76
2023/11/08 08:41:22;;;;;;;;;;;11.50;99.90;;;;;;5027868;28;20005;-77
2023/11/08 08:43:48;;;;;;;;;;;11.60;99.90;;;;;;5020212;28;19944;-72
2023/11/08 08:46:14;;;;;;;;;;;11.70;99.90;;;;;;5025637;28;19924;-78
2023/11/08 08:48:39;;;;;;;;;;;11.70;99.90;;;;;;5027452;28;19943;-71
2023/11/08 08:51:05;;;;;;;;;;;11.70;99.90;;;;;;5027010;28;20432;-76
2023/11/08 08:53:31;;;;;;;;;;;11.80;99.90;;;;;;5029606;28;19917;-77
2023/11/08 08:55:56;;;;;;;;;;;11.90;99.90;;;;;;5038891;28;20005;-75
2023/11/08 08:58:22;;;;;;;;;;;11.90;99.90;;;;;;5028732;28;19952;-78
2023/11/08 09:00:47;;;;;;;;;;;11.90;99.90;;;;;;5024144;28;20322;-72
2023/11/08 09:03:15;;;;;;;;;;;11.90;99.90;;;;;;5031002;28;19913;-72
2023/11/08 09:05:41;;;;;;;;;;;11.90;99.90;;;;;;5031522;28;20291;-76
2023/11/08 09:08:07;;;;;;;;;;;11.90;99.90;;;;;;5030359;28;19917;-78
2023/11/08 09:10:32;;;;;;;;;;;12.00;99.90;;;;;;5028087;28;20354;-72
2023/11/08 09:12:58;;;;;;;;;;;12.00;99.90;;;;;;5026526;28;19924;-72
2023/11/08 09:15:24;;;;;;;;;;;12.10;99.90;;;;;;5026737;28;19963;-72
2023/11/08 09:17:49;;;;;;;;;;;12.10;99.90;;;;;;5029342;28;19953;-77
2023/11/08 09:20:15;;;;;;;;;;;12.20;99.90;;;;;;5025988;28;20011;-77
2023/11/08 09:22:41;;;;;;;;;;;12.20;99.90;;;;;;5026379;28;19913;-72
2023/11/08 09:25:08;;;;;;;;;;;12.30;99.90;;;;;;5021865;28;19914;-77
2023/11/08 09:27:34;;;;;;;;;;;12.40;99.90;;;;;;5027464;28;19972;-72
2023/11/08 09:30:00;;;;;;;;;;;12.50;99.90;;;;;;5026835;28;19933;-77
2023/11/08 09:32:27;;;;;;;;;;;12.60;99.90;;;;;;5028469;28;19913;-78
2023/11/08 09:34:53;;;;;;;;;;;12.70;99.90;;;;;;5027607;28;20423;-72
2023/11/08 09:37:18;;;;;;;;;;;12.90;99.90;;;;;;5026662;28;20004;-72
2023/11/08 09:39:48;;;;;;;;;;;13.10;99.90;;;;;;5027747;28;19917;-72
2023/11/08 09:42:15;;;;;;;;;;;13.20;99.90;;;;;;5027719;28;20015;-79
2023/11/08 09:44:41;;;;;;;;;;;13.40;99.90;;;;;;5016531;28;19956;-78
2023/11/08 09:47:07;;;;;;;;;;;13.40;99.90;;;;;;5026007;28;19909;-77
2023/11/08 09:49:33;;;;;;;;;;;13.50;99.90;;;;;;5029160;28;20288;-72
2023/11/08 09:51:58;;;;;;;;;;;13.60;99.90;;;;;;5020728;28;19968;-79
2023/11/08 09:54:24;;;;;;;;;;;13.70;99.90;;;;;;5023803;28;19964;-71
2023/11/08 09:56:50;;;;;;;;;;;13.90;99.90;;;;;;5030403;28;19921;-71
2023/11/08 09:59:16;;;;;;;;;;;14.10;99.90;;;;;;5031150;28;20384;-79
2023/11/08 10:01:44;;;;;;;;;;;14.10;99.90;;;;;;5030738;28;20011;-72
2023/11/08 10:04:15;;;;;;;;;;;14.20;99.90;;;;;;5030217;28;19996;-72
2023/11/08 10:06:41;;;;;;;;;;;14.30;99.90;;;;;;5024943;28;19956;-72
2023/11/08 10:09:08;;;;;;;;;;;14.40;99.90;;;;;;5017271;28;19944;-77
2023/11/08 10:11:35;;;;;;;;;;;14.50;99.90;;;;;;5025464;28;19917;-79
2023/11/08 10:14:00;;;;;;;;;;;14.60;99.90;;;;;;5029627;28;20387;-79
2023/11/08 10:16:27;;;;;;;;;;;14.70;99.90;;;;;;5024747;28;19920;-72
2023/11/08 10:18:55;;;;;;;;;;;14.80;99.90;;;;;;5030368;28;19923;-72
2023/11/08 10:21:21;;;;;;;;;;;14.90;99.90;;;;;;5017392;28;19932;-72
2023/11/08 10:23:50;;;;;;;;;;;14.70;99.90;;;;;;5013595;28;20395;-79
2023/11/08 10:26:19;;;;;;;;;;;14.60;99.90;;;;;;5030213;28;19915;-79
2023/11/08 10:28:55;;;;;;;;;;;14.60;99.90;;;;;;5028730;28;20084;-71
2023/11/08 10:31:32;;;;;;;;;;;14.60;99.90;;;;;;5028459;28;20003;-72
2023/11/08 10:33:58;;;;;;;;;;;14.60;99.90;;;;;;5014670;28;20004;-71
2023/11/08 10:36:27;;;;;;;;;;;14.70;99.90;;;;;;5029732;28;19960;-72
2023/11/08 10:38:53;;;;;;;;;;;14.80;99.90;;;;;;5032927;28;20291;-79
2023/11/08 10:41:19;;;;;;;;;;;15.00;99.90;;;;;;5034403;28;19917;-72
2023/11/08 10:43:45;;;;;;;;;;;15.20;99.90;;;;;;5043897;28;20407;-70
2023/11/08 10:46:10;;;;;;;;;;;15.30;99.90;;;;;;5031750;28;19913;-78
2023/11/08 10:48:37;;;;;;;;;;;15.20;99.90;;;;;;5027619;28;19952;-79
2023/11/08 10:51:04;;;;;;;;;;;15.20;99.90;;;;;;5027072;28;19917;-79
2023/11/08 10:53:29;;;;;;;;;;;15.20;99.90;;;;;;5033745;28;20380;-79
2023/11/08 10:55:58;;;;;;;;;;;15.10;99.90;;;;;;5033868;28;19926;-71
2023/11/08 10:58:24;;;;;;;;;;;15.00;99.90;;;;;;5032453;28;19917;-71
2023/11/08 11:00:50;;;;;;;;;;;15.30;99.90;;;;;;5030826;28;19913;-71
2023/11/08 11:03:17;;;;;;;;;;;15.40;99.90;;;;;;5036130;28;19913;-77
2023/11/08 11:05:45;;;;;;;;;;;15.50;99.90;;;;;;5036154;28;19917;-77
2023/11/08 11:08:18;;;;;;;;;;;15.50;99.90;;;;;;5033615;28;19921;-72
2023/11/08 11:10:43;;;;;;;;;;;15.50;99.90;;;;;;5031466;28;20425;-71
2023/11/08 11:13:12;;;;;;;;;;;15.90;99.90;;;;;;5032284;28;20000;-73
2023/11/08 11:15:52;;;;;;;;;;;16.00;99.90;;;;;;5029636;28;19917;-77
2023/11/08 11:18:20;;;;;;;;;;;15.90;99.90;;;;;;5034142;28;19917;-71
2023/11/08 11:20:54;;;;;;;;;;;15.80;99.90;;;;;;5033877;28;20331;-71
2023/11/08 11:23:31;;;;;;;;;;;15.80;99.90;;;;;;5024705;28;19913;-72
2023/11/08 11:25:57;;;;;;;;;;;15.80;99.90;;;;;;5023371;28;20397;-75
2023/11/08 11:28:46;;;;;;;;;;;15.90;99.90;;;;;;5029741;28;19949;-77
2023/11/08 11:31:29;;;;;;;;;;;15.90;99.90;;;;;;5031064;28;19928;-76
2023/11/08 11:33:55;;;;;;;;;;;15.90;99.90;;;;;;5027488;28;19924;-72
2023/11/08 11:36:21;;;;;;;;;;;15.80;99.90;;;;;;5033829;28;19917;-73
2023/11/08 11:39:07;;;;;;;;;;;15.80;99.90;;;;;;5033627;28;20387;-73
2023/11/08 11:41:33;;;;;;;;;;;15.40;99.90;;;;;;5036302;28;19921;-77
2023/11/08 11:43:59;;;;;;;;;;;15.70;99.90;;;;;;5030007;28;20370;-76
2023/11/08 11:46:27;;;;;;;;;;;15.60;99.90;;;;;;5021049;28;19921;-73
2023/11/08 11:49:08;;;;;;;;;;;15.70;99.90;;;;;;5016552;28;19913;-72
2023/11/08 11:51:34;;;;;;;;;;;15.80;99.90;;;;;;5021229;28;19921;-72
2023/11/08 11:54:01;;;;;;;;;;;15.70;99.90;;;;;;5032493;28;20338;-77
2023/11/08 11:56:27;;;;;;;;;;;15.70;99.90;;;;;;5033353;28;19917;-76
2023/11/08 11:58:52;;;;;;;;;;;15.60;99.90;;;;;;5031680;28;19983;-72
2023/11/08 12:01:19;;;;;;;;;;;15.70;99.90;;;;;;5028439;28;19939;-72
2023/11/08 12:03:45;;;;;;;;;;;15.70;99.90;;;;;;5031066;28;20036;-72
2023/11/08 12:06:10;;;;;;;;;;;15.90;99.90;;;;;;5025541;28;20358;-72
2023/11/08 12:08:36;;;;;;;;;;;15.80;99.90;;;;;;5014361;28;19927;-76
2023/11/08 12:11:11;;;;;;;;;;;15.80;99.90;;;;;;5027620;28;19948;-75
2023/11/08 12:13:46;;;;;;;;;;;15.60;99.90;;;;;;5021170;28;19921;-72
2023/11/08 12:16:12;;;;;;;;;;;15.60;99.90;;;;;;5029495;28;19952;-73
2023/11/08 12:18:38;;;;;;;;;;;15.60;99.90;;;;;;5032084;28;19960;-71
2023/11/08 12:21:04;;;;;;;;;;;15.60;99.90;;;;;;5019782;28;19921;-77
2023/11/08 12:23:29;;;;;;;;;;;15.60;99.90;;;;;;5025948;28;20399;-76
2023/11/08 12:25:55;;;;;;;;;;;15.70;99.90;;;;;;5026327;28;19917;-77
2023/11/08 12:28:20;;;;;;;;;;;15.60;99.90;;;;;;5026752;28;19924;-72
2023/11/08 12:30:46;;;;;;;;;;;15.70;99.90;;;;;;5029225;28;19921;-72
2023/11/08 12:33:12;;;;;;;;;;;15.70;99.90;;;;;;5028939;28;20391;-76
2023/11/08 12:35:37;;;;;;;;;;;16.00;99.90;;;;;;5032332;28;19913;-76
2023/11/08 12:38:03;;;;;;;;;;;16.20;99.90;;;;;;5015844;28;20388;-71
2023/11/08 12:40:28;;;;;;;;;;;16.20;99.90;;;;;;5011875;28;19952;-72
2023/11/08 12:42:54;;;;;;;;;;;16.60;99.90;;;;;;5013033;28;19917;-77
2023/11/08 12:45:30;;;;;;;;;;;17.10;99.90;;;;;;5012760;28;20339;-72
2023/11/08 12:48:04;;;;;;;;;;;17.10;99.90;;;;;;5028155;28;19917;-77
2023/11/08 12:50:30;;;;;;;;;;;17.10;99.90;;;;;;5025916;28;19921;-70
2023/11/08 12:52:58;;;;;;;;;;;16.60;99.90;;;;;;5018432;28;19921;-71
2023/11/08 12:55:24;;;;;;;;;;;16.20;99.90;;;;;;5017783;28;19925;-77
2023/11/08 12:57:49;;;;;;;;;;;16.00;99.90;;;;;;5015862;28;20000;-76
2023/11/08 13:00:16;;;;;;;;;;;16.10;99.90;;;;;;5023427;28;19918;-76
2023/11/08 13:02:55;;;;;;;;;;;16.10;99.90;;;;;;5031372;28;20012;-76
2023/11/08 13:05:20;;;;;;;;;;;16.10;99.90;;;;;;5015950;28;19924;-77
2023/11/08 13:07:46;;;;;;;;;;;16.00;99.90;;;;;;5027249;28;19913;-73
2023/11/08 13:10:11;;;;;;;;;;;16.10;99.90;;;;;;5029665;28;20015;-72
2023/11/08 13:12:37;;;;;;;;;;;16.20;99.90;;;;;;5019482;28;19920;-77
2023/11/08 13:15:02;;;;;;;;;;;16.10;99.90;;;;;;5028066;28;19928;-78
2023/11/08 13:17:28;;;;;;;;;;;15.80;99.90;;;;;;5031219;28;19923;-71
2023/11/08 13:19:53;;;;;;;;;;;15.80;99.90;;;;;;5020710;28;20379;-73
2023/11/08 13:22:20;;;;;;;;;;;15.80;99.90;;;;;;5029637;28;20007;-73
2023/11/08 13:24:45;;;;;;;;;;;15.80;99.90;;;;;;5023230;28;19914;-72
2023/11/08 13:27:11;;;;;;;;;;;15.70;99.90;;;;;;5017334;28;19920;-77
2023/11/08 13:29:36;;;;;;;;;;;15.70;99.90;;;;;;5024107;28;19924;-72
2023/11/08 13:32:03;;;;;;;;;;;15.60;99.90;;;;;;5017175;28;20605;-72
2023/11/08 13:34:28;;;;;;;;;;;15.60;99.90;;;;;;5020978;28;19952;-71
2023/11/08 13:36:58;;;;;;;;;;;15.70;99.90;;;;;;5028995;28;19917;-72
2023/11/08 13:39:23;;;;;;;;;;;15.90;99.90;;;;;;5014224;28;19920;-76
2023/11/08 13:41:49;;;;;;;;;;;16.00;99.90;;;;;;5009797;28;20287;-76
2023/11/08 13:44:14;;;;;;;;;;;15.90;99.90;;;;;;5021648;28;19917;-73
2023/11/08 13:46:40;;;;;;;;;;;15.80;99.90;;;;;;5015182;28;19929;-72
2023/11/08 13:49:07;;;;;;;;;;;15.80;99.90;;;;;;5026882;28;19919;-72
2023/11/08 13:51:33;;;;;;;;;;;15.60;99.90;;;;;;5028322;28;19952;-77
2023/11/08 13:53:58;;;;;;;;;;;15.50;99.90;;;;;;5021846;28;20340;-77
2023/11/08 13:56:24;;;;;;;;;;;15.50;99.90;;;;;;5018679;28;20410;-77
2023/11/08 13:58:49;;;;;;;;;;;15.50;99.90;;;;;;5010569;28;20008;-72
2023/11/08 14:01:16;;;;;;;;;;;15.40;99.90;;;;;;5022866;28;19909;-71
2023/11/08 14:03:42;;;;;;;;;;;15.30;99.90;;;;;;5029761;28;19944;-76
2023/11/08 14:06:08;;;;;;;;;;;15.20;99.90;;;;;;5030905;28;19917;-79
2023/11/08 14:08:34;;;;;;;;;;;15.10;99.90;;;;;;5027529;28;20330;-74
2023/11/08 14:10:59;;;;;;;;;;;15.10;99.90;;;;;;5029768;28;19913;-73
2023/11/08 14:13:25;;;;;;;;;;;15.00;99.90;;;;;;5023021;28;20291;-73
2023/11/08 14:15:50;;;;;;;;;;;15.00;99.90;;;;;;5023531;28;19917;-77
2023/11/08 14:18:17;;;;;;;;;;;15.00;99.90;;;;;;5029935;28;19925;-78